createdAt,value
2023-02-02T00:01:59.421Z,5.85
2023-02-02T00:04:27.355Z,5.89
2023-02-02T00:06:54.383Z,5.87
2023-02-02T00:09:21.062Z,5.82
2023-02-02T00:11:48.864Z,5.79
2023-02-02T00:14:15.392Z,5.79
2023-02-02T00:16:49.418Z,5.73
2023-02-02T00:19:21.666Z,5.75
2023-02-02T00:21:48.603Z,5.70
2023-02-02T00:24:17.943Z,5.65
2023-02-02T00:26:44.747Z,5.73
2023-02-02T00:29:18.725Z,5.62
2023-02-02T00:31:46.529Z,5.62
2023-02-02T00:34:14.400Z,5.68
2023-02-02T00:36:41.670Z,5.64
2023-02-02T00:39:08.801Z,5.62
2023-02-02T00:41:35.299Z,5.60
2023-02-02T00:44:20.614Z,5.54
2023-02-02T00:46:47.565Z,5.55
2023-02-02T00:49:14.018Z,5.62
2023-02-02T00:51:40.494Z,5.60
2023-02-02T00:54:07.573Z,5.58
2023-02-02T00:56:34.119Z,5.61
2023-02-02T00:59:00.672Z,5.62
2023-02-02T01:04:20.634Z,5.62
2023-02-02T01:06:47.099Z,5.62
2023-02-02T01:09:13.818Z,5.64
2023-02-02T01:11:40.304Z,5.63
2023-02-02T01:14:07.070Z,5.64
2023-02-02T01:16:34.280Z,5.61
2023-02-02T01:23:13.554Z,5.54
2023-02-02T01:25:40.047Z,5.52
2023-02-02T01:28:06.527Z,5.50
2023-02-02T01:33:18.379Z,5.54
2023-02-02T01:35:48.225Z,5.48
2023-02-02T01:38:15.930Z,5.51
2023-02-02T01:40:53.466Z,5.47
2023-02-02T01:43:43.174Z,5.55
2023-02-02T01:46:20.837Z,5.52
2023-02-02T01:48:51.148Z,5.48
2023-02-02T01:51:20.706Z,5.52
2023-02-02T01:53:49.081Z,5.55
2023-02-02T01:56:25.041Z,5.57
2023-02-02T01:58:51.728Z,5.58
2023-02-02T02:01:18.491Z,5.59
2023-02-02T02:03:44.926Z,5.49
2023-02-02T02:06:14.691Z,5.48
2023-02-02T02:08:52.302Z,5.49
2023-02-02T02:11:20.666Z,5.46
2023-02-02T02:14:06.339Z,5.53
2023-02-02T02:16:40.495Z,5.55
2023-02-02T02:20:02.500Z,5.57
2023-02-02T02:22:58.573Z,5.58
2023-02-02T02:26:07.041Z,5.53
2023-02-02T02:28:55.692Z,5.55
2023-02-02T02:31:31.572Z,5.43
2023-02-02T02:34:07.712Z,5.53
2023-02-02T02:36:49.888Z,5.52
2023-02-02T02:39:33.087Z,5.46
2023-02-02T02:42:04.709Z,5.48
2023-02-02T02:44:32.109Z,5.40
2023-02-02T02:46:58.779Z,5.40
2023-02-02T02:49:25.527Z,5.43
2023-02-02T02:51:55.661Z,5.44
2023-02-02T02:54:33.263Z,5.42
2023-02-02T02:57:21.953Z,5.47
2023-02-02T02:59:48.391Z,5.44
2023-02-02T03:02:37.450Z,5.46
2023-02-02T03:05:37.348Z,5.40
2023-02-02T03:08:16.189Z,5.39
2023-02-02T03:10:44.753Z,5.40
2023-02-02T03:13:12.422Z,5.40
2023-02-02T03:15:43.694Z,5.38
2023-02-02T03:18:11.643Z,5.40
2023-02-02T03:20:38.081Z,5.40
2023-02-02T03:23:04.575Z,5.40
2023-02-02T03:25:31.231Z,5.41
2023-02-02T03:27:58.319Z,5.38
2023-02-02T03:30:24.826Z,5.40
2023-02-02T03:32:52.147Z,5.40
2023-02-02T03:35:20.708Z,5.48
2023-02-02T03:37:47.828Z,5.44
2023-02-02T03:40:14.745Z,5.45
2023-02-02T03:42:41.207Z,5.44
2023-02-02T03:45:08.174Z,5.47
2023-02-02T03:47:34.771Z,5.47
2023-02-02T03:50:01.256Z,5.52
2023-02-02T03:52:27.932Z,5.55
2023-02-02T03:54:54.591Z,5.53
2023-02-02T03:57:21.068Z,5.56
2023-02-02T03:59:47.504Z,5.56
2023-02-02T04:02:13.902Z,5.60
2023-02-02T04:04:40.387Z,5.57
2023-02-02T04:07:06.980Z,5.56
2023-02-02T04:09:33.637Z,5.61
2023-02-02T04:12:00.218Z,5.63
2023-02-02T04:14:26.665Z,5.65
2023-02-02T04:16:53.095Z,5.66
2023-02-02T04:19:19.521Z,5.64
2023-02-02T04:21:46.045Z,5.64
2023-02-02T04:24:13.646Z,5.62
2023-02-02T04:26:40.356Z,5.66
2023-02-02T04:29:07.244Z,5.73
2023-02-02T04:31:33.899Z,5.67
2023-02-02T04:34:00.958Z,5.72
2023-02-02T04:36:27.540Z,5.69
2023-02-02T04:38:55.215Z,5.69
2023-02-02T04:41:22.491Z,5.77
2023-02-02T04:43:49.157Z,5.72
2023-02-02T04:46:15.700Z,5.69
2023-02-02T04:48:42.213Z,5.73
2023-02-02T04:51:13.827Z,5.70
2023-02-02T04:53:41.509Z,5.71
2023-02-02T04:56:18.473Z,5.73
2023-02-02T04:58:45.418Z,5.72
2023-02-02T05:01:15.354Z,5.78
2023-02-02T05:03:42.141Z,5.79
2023-02-02T05:06:08.809Z,5.77
2023-02-02T05:08:35.904Z,5.79
2023-02-02T05:11:14.085Z,5.83
2023-02-02T05:13:40.963Z,5.79
2023-02-02T05:16:07.552Z,5.81
2023-02-02T05:18:34.038Z,5.83
2023-02-02T05:21:01.685Z,5.83
2023-02-02T05:23:28.437Z,5.83
2023-02-02T05:25:55.364Z,5.88
2023-02-02T05:28:22.178Z,5.84
2023-02-02T05:30:48.738Z,5.83
2023-02-02T05:33:15.645Z,5.84
2023-02-02T05:35:42.118Z,5.85
2023-02-02T05:38:08.592Z,5.88
2023-02-02T05:40:35.086Z,5.89
2023-02-02T05:43:01.562Z,5.84
2023-02-02T05:45:28.029Z,5.88
2023-02-02T05:47:55.586Z,5.89
2023-02-02T05:50:22.305Z,5.91
2023-02-02T05:53:01.211Z,5.96
2023-02-02T05:55:27.646Z,5.88
2023-02-02T05:57:54.090Z,5.87
2023-02-02T06:00:20.839Z,5.92
2023-02-02T06:02:47.447Z,5.86
2023-02-02T06:05:14.052Z,5.89
2023-02-02T06:07:40.603Z,5.90
2023-02-02T06:10:07.324Z,5.89
2023-02-02T06:12:33.789Z,5.91
2023-02-02T06:15:00.530Z,5.89
2023-02-02T06:17:26.995Z,5.87
2023-02-02T06:19:53.496Z,5.87
2023-02-02T06:22:20.008Z,5.89
2023-02-02T06:24:46.477Z,5.89
2023-02-02T06:27:12.927Z,5.87
2023-02-02T06:29:39.573Z,5.86
2023-02-02T06:32:06.143Z,5.87
2023-02-02T06:34:32.623Z,5.94
2023-02-02T06:36:59.192Z,5.95
2023-02-02T06:39:25.659Z,5.91
2023-02-02T06:41:52.203Z,5.91
2023-02-02T06:44:20.821Z,5.89
2023-02-02T06:46:47.566Z,5.89
2023-02-02T06:49:14.059Z,5.95
2023-02-02T06:51:40.532Z,5.93
2023-02-02T06:54:07.055Z,5.99
2023-02-02T06:56:33.740Z,5.94
2023-02-02T06:59:00.219Z,5.91
2023-02-02T07:01:26.783Z,5.91
2023-02-02T07:03:53.472Z,5.93
2023-02-02T07:06:22.722Z,5.91
2023-02-02T07:09:02.248Z,5.92
2023-02-02T07:11:31.339Z,5.93
2023-02-02T07:13:57.984Z,5.94
2023-02-02T07:16:24.534Z,5.96
2023-02-02T07:18:50.985Z,5.95
2023-02-02T07:21:19.673Z,5.96
2023-02-02T07:23:46.849Z,6.00
2023-02-02T07:26:18.447Z,6.06
2023-02-02T07:28:45.305Z,6.10
2023-02-02T07:31:18.680Z,6.13
2023-02-02T07:33:45.926Z,6.17
2023-02-02T07:36:14.219Z,6.15
2023-02-02T07:38:40.686Z,6.20
2023-02-02T07:41:07.122Z,6.23
2023-02-02T07:43:33.606Z,6.23
2023-02-02T07:46:04.678Z,6.21
2023-02-02T07:48:31.201Z,6.23
2023-02-02T07:51:05.639Z,6.26
2023-02-02T07:53:33.035Z,6.25
2023-02-02T07:56:14.471Z,6.23
2023-02-02T07:58:41.313Z,6.23
2023-02-02T08:01:09.665Z,6.25
2023-02-02T08:03:37.111Z,6.27
2023-02-02T08:06:18.791Z,6.28
2023-02-02T08:08:46.214Z,6.26
2023-02-02T08:11:13.960Z,6.28
2023-02-02T08:13:41.243Z,6.28
2023-02-02T08:16:08.383Z,6.32
2023-02-02T08:18:35.836Z,6.33
2023-02-02T08:21:03.690Z,6.35
2023-02-02T08:23:31.192Z,6.39
2023-02-02T08:26:07.898Z,6.40
2023-02-02T08:28:36.233Z,6.42
2023-02-02T08:31:14.479Z,6.44
2023-02-02T08:33:41.011Z,6.46
2023-02-02T08:36:15.703Z,6.48
2023-02-02T08:38:42.322Z,6.52
2023-02-02T08:41:10.312Z,6.53
2023-02-02T08:43:37.190Z,6.55
2023-02-02T08:46:05.553Z,6.53
2023-02-02T08:48:32.177Z,6.53
2023-02-02T08:50:59.202Z,6.54
2023-02-02T08:53:26.466Z,6.58
2023-02-02T08:55:59.988Z,6.60
2023-02-02T08:58:26.861Z,6.63
2023-02-02T09:00:53.613Z,6.64
2023-02-02T09:03:20.078Z,6.63
2023-02-02T09:05:46.526Z,6.66
2023-02-02T09:08:13.221Z,6.66
2023-02-02T09:10:39.712Z,6.68
2023-02-02T09:13:06.141Z,6.70
2023-02-02T09:15:32.756Z,6.70
2023-02-02T09:17:59.152Z,6.73
2023-02-02T09:20:25.560Z,6.79
2023-02-02T09:22:51.949Z,6.84
2023-02-02T09:25:18.371Z,6.82
2023-02-02T09:27:44.816Z,6.83
2023-02-02T09:30:11.828Z,6.83
2023-02-02T09:32:38.280Z,6.86
2023-02-02T09:35:04.870Z,6.89
2023-02-02T09:37:33.984Z,6.89
2023-02-02T09:40:00.400Z,6.88
2023-02-02T09:42:49.638Z,6.92
2023-02-02T09:45:23.119Z,6.94
2023-02-02T09:48:00.213Z,6.94
2023-02-02T09:50:44.392Z,6.96
2023-02-02T09:53:17.055Z,6.98
2023-02-02T09:55:45.688Z,6.97
2023-02-02T09:58:36.965Z,6.95
2023-02-02T10:01:16.455Z,6.93
2023-02-02T10:04:12.436Z,6.93
2023-02-02T10:06:43.793Z,6.95
2023-02-02T10:09:34.881Z,6.97
2023-02-02T10:12:20.203Z,6.97
2023-02-02T10:14:52.462Z,6.95
2023-02-02T10:17:56.524Z,6.99
2023-02-02T10:20:31.884Z,7.02
2023-02-02T10:23:04.111Z,7.07
2023-02-02T10:25:30.997Z,7.07
2023-02-02T10:28:09.914Z,7.09
2023-02-02T10:30:47.766Z,7.12
2023-02-02T10:33:21.240Z,7.14
2023-02-02T10:36:12.022Z,7.20
2023-02-02T10:38:45.215Z,7.21
2023-02-02T10:41:23.092Z,7.23
2023-02-02T10:44:11.418Z,7.23
2023-02-02T10:46:43.900Z,7.25
2023-02-02T10:49:29.256Z,7.26
2023-02-02T10:52:15.244Z,7.25
2023-02-02T10:55:00.413Z,7.28
2023-02-02T10:57:37.058Z,7.30
2023-02-02T11:00:09.471Z,7.34
2023-02-02T11:02:35.952Z,7.33
2023-02-02T11:05:21.065Z,7.34
2023-02-02T11:07:47.599Z,7.38
2023-02-02T11:10:14.028Z,7.41
2023-02-02T11:12:42.720Z,7.44
2023-02-02T11:15:29.508Z,7.46
2023-02-02T11:17:56.139Z,7.50
2023-02-02T11:20:34.075Z,7.50
2023-02-02T11:23:02.797Z,7.53
2023-02-02T11:25:37.835Z,7.56
2023-02-02T11:28:18.602Z,7.58
2023-02-02T11:30:52.255Z,7.62
2023-02-02T11:33:29.434Z,7.66
2023-02-02T11:35:58.509Z,7.68
2023-02-02T11:38:26.230Z,7.69
2023-02-02T11:41:08.959Z,7.70
2023-02-02T11:43:50.979Z,7.70
2023-02-02T11:46:20.771Z,7.73
2023-02-02T11:49:00.888Z,7.74
2023-02-02T11:51:28.416Z,7.77
2023-02-02T11:54:06.589Z,7.77
2023-02-02T11:56:35.471Z,7.77
2023-02-02T11:59:03.811Z,7.81
2023-02-02T12:01:35.753Z,7.82
2023-02-02T12:04:17.549Z,7.84
2023-02-02T12:06:44.417Z,7.86
2023-02-02T12:09:14.507Z,7.85
2023-02-02T12:12:07.603Z,7.83
2023-02-02T12:15:13.000Z,7.83
2023-02-02T12:17:42.873Z,7.80
2023-02-02T12:20:33.339Z,7.82
2023-02-02T12:23:22.353Z,7.82
2023-02-02T12:26:26.021Z,7.81
2023-02-02T12:28:52.420Z,7.81
2023-02-02T12:31:46.749Z,7.81
2023-02-02T12:34:50.352Z,7.83
2023-02-02T12:37:24.482Z,7.83
2023-02-02T12:40:02.838Z,7.85
2023-02-02T12:42:47.551Z,7.87
2023-02-02T12:45:38.277Z,7.91
2023-02-02T12:48:33.224Z,7.93
2023-02-02T12:51:31.390Z,7.94
2023-02-02T12:54:44.326Z,7.97
2023-02-02T12:57:32.771Z,7.98
2023-02-02T13:00:10.157Z,7.95
2023-02-02T13:02:44.730Z,7.96
2023-02-02T13:05:46.852Z,7.98
2023-02-02T13:08:18.568Z,7.99
2023-02-02T13:10:53.415Z,8.00
2023-02-02T13:13:24.542Z,8.02
2023-02-02T13:15:59.351Z,8.04
2023-02-02T13:18:46.340Z,8.04
2023-02-02T13:21:16.777Z,8.07
2023-02-02T13:23:46.297Z,8.09
2023-02-02T13:26:18.415Z,8.10
2023-02-02T13:28:53.004Z,8.14
2023-02-02T13:31:26.118Z,8.13
2023-02-02T13:34:17.821Z,8.13
2023-02-02T13:36:48.989Z,8.14
2023-02-02T13:39:20.597Z,8.16
2023-02-02T13:41:47.553Z,8.19
2023-02-02T13:44:21.637Z,8.19
2023-02-02T13:46:59.881Z,8.19
2023-02-02T13:49:32.035Z,8.20
2023-02-02T13:52:36.169Z,8.22
2023-02-02T13:55:05.266Z,8.24
2023-02-02T13:57:52.652Z,8.25
2023-02-02T14:00:21.723Z,8.25
2023-02-02T14:02:51.252Z,8.25
2023-02-02T14:05:28.187Z,8.22
2023-02-02T14:08:18.836Z,8.24
2023-02-02T14:10:57.637Z,8.21
2023-02-02T14:13:55.429Z,8.18
2023-02-02T14:16:24.026Z,8.17
2023-02-02T14:18:50.728Z,8.18
2023-02-02T14:21:48.969Z,8.18
2023-02-02T14:24:37.250Z,8.18
2023-02-02T14:27:09.896Z,8.18
2023-02-02T14:29:46.790Z,8.17
2023-02-02T14:32:27.603Z,8.17
2023-02-02T14:34:55.754Z,8.14
2023-02-02T14:37:28.215Z,8.16
2023-02-02T14:40:06.685Z,8.16
2023-02-02T14:43:20.668Z,8.18
2023-02-02T14:45:48.819Z,8.16
2023-02-02T14:48:20.207Z,8.17
2023-02-02T14:50:53.571Z,8.16
2023-02-02T14:53:29.237Z,8.10
2023-02-02T14:56:01.637Z,8.11
2023-02-02T14:58:34.845Z,8.12
2023-02-02T15:01:10.656Z,8.13
2023-02-02T15:03:43.122Z,8.13
2023-02-02T15:06:32.959Z,8.12
2023-02-02T15:09:27.669Z,8.10
2023-02-02T15:12:03.149Z,8.09
2023-02-02T15:14:35.632Z,8.07
2023-02-02T15:17:05.061Z,8.08
2023-02-02T15:19:35.730Z,8.08
2023-02-02T15:22:24.375Z,8.09
2023-02-02T15:24:51.538Z,8.09
2023-02-02T15:27:18.929Z,8.09
2023-02-02T15:29:48.045Z,8.10
2023-02-02T15:32:20.322Z,8.08
2023-02-02T15:34:48.867Z,8.07
2023-02-02T15:37:20.481Z,8.05
2023-02-02T15:39:49.006Z,8.06
2023-02-02T15:42:37.381Z,8.03
2023-02-02T15:45:03.986Z,8.00
2023-02-02T15:47:33.308Z,8.02
2023-02-02T15:50:00.028Z,8.03
2023-02-02T15:52:29.619Z,8.02
2023-02-02T15:54:57.795Z,7.99
2023-02-02T15:57:33.055Z,7.95
2023-02-02T16:00:00.949Z,7.96
2023-02-02T16:02:30.215Z,7.95
2023-02-02T16:04:56.729Z,7.92
2023-02-02T16:07:31.492Z,7.90
2023-02-02T16:10:06.906Z,7.89
2023-02-02T16:12:34.393Z,7.90
2023-02-02T16:15:01.219Z,7.90
2023-02-02T16:17:30.378Z,7.87
2023-02-02T16:20:03.601Z,7.83
2023-02-02T16:22:31.088Z,7.81
2023-02-02T16:25:00.996Z,7.82
2023-02-02T16:27:29.337Z,7.78
2023-02-02T16:30:00.132Z,7.78
2023-02-02T16:32:38.864Z,7.77
2023-02-02T16:35:09.531Z,7.77
2023-02-02T16:37:36.398Z,7.78
2023-02-02T16:40:25.848Z,7.74
2023-02-02T17:01:05.182Z,7.77
2023-02-02T17:08:04.487Z,7.73
2023-02-02T17:10:39.047Z,7.68
2023-02-02T17:13:30.380Z,7.73
2023-02-02T17:15:57.451Z,7.69
2023-02-02T17:18:23.933Z,7.60
2023-02-02T17:20:57.439Z,7.58
2023-02-02T17:23:25.784Z,7.61
2023-02-02T17:25:52.631Z,7.61
2023-02-02T17:28:21.651Z,7.62
2023-02-02T17:30:50.286Z,7.69
2023-02-02T17:33:18.319Z,7.68
2023-02-02T17:35:54.466Z,7.57
2023-02-02T17:38:23.377Z,7.61
2023-02-02T17:40:50.252Z,7.56
2023-02-02T17:43:16.727Z,7.52
2023-02-02T17:45:43.251Z,7.52
2023-02-02T17:48:11.747Z,7.49
2023-02-02T17:50:39.197Z,7.52
2023-02-02T17:53:05.840Z,7.42
2023-02-02T17:55:38.755Z,7.41
2023-02-02T17:58:05.643Z,7.40
2023-02-02T18:00:32.317Z,7.36
2023-02-02T18:03:12.605Z,7.38
2023-02-02T18:05:41.366Z,7.34
2023-02-02T18:08:12.744Z,7.32
2023-02-02T18:10:39.938Z,7.34
2023-02-02T18:13:06.741Z,7.33
2023-02-02T18:15:34.942Z,7.30
2023-02-02T18:18:01.984Z,7.30
2023-02-02T18:20:28.539Z,7.22
2023-02-02T18:22:55.022Z,7.21
2023-02-02T18:25:21.641Z,7.20
2023-02-02T18:27:50.580Z,7.14
2023-02-02T18:30:17.043Z,7.15
2023-02-02T18:32:43.572Z,7.15
2023-02-02T18:35:11.626Z,7.10
2023-02-02T18:37:38.514Z,7.10
2023-02-02T18:40:06.809Z,7.12
2023-02-02T18:42:34.261Z,7.13
2023-02-02T18:45:00.808Z,7.05
2023-02-02T18:47:27.694Z,7.04
2023-02-02T18:49:54.281Z,7.01
2023-02-02T18:52:20.710Z,6.98
2023-02-02T18:54:47.737Z,6.96
2023-02-02T18:57:14.542Z,6.93
2023-02-02T18:59:41.762Z,6.95
2023-02-02T19:02:13.460Z,6.88
2023-02-02T19:04:40.019Z,6.88
2023-02-02T19:07:25.315Z,6.90
2023-02-02T19:09:52.815Z,6.87
2023-02-02T19:12:19.595Z,6.87
2023-02-02T19:14:46.027Z,6.84
2023-02-02T19:17:24.357Z,6.90
2023-02-02T19:19:50.963Z,6.81
2023-02-02T19:22:20.812Z,6.81
2023-02-02T19:24:48.101Z,6.79
2023-02-02T19:27:18.184Z,6.77
2023-02-02T19:29:46.172Z,6.76
2023-02-02T19:32:15.510Z,6.82
2023-02-02T19:34:41.923Z,6.86
2023-02-02T19:37:22.514Z,6.77
2023-02-02T19:39:49.213Z,6.70
2023-02-02T19:42:15.777Z,6.75
2023-02-02T19:44:42.305Z,6.72
2023-02-02T19:47:25.771Z,6.76
2023-02-02T19:49:53.075Z,6.70
2023-02-02T19:52:24.370Z,6.71
2023-02-02T19:54:52.881Z,6.64
2023-02-02T19:57:25.428Z,6.66
2023-02-02T19:59:52.588Z,6.71
2023-02-02T20:02:29.615Z,6.63
2023-02-02T20:05:27.492Z,6.68
2023-02-02T20:08:01.302Z,6.59
2023-02-02T20:10:46.029Z,6.62
2023-02-02T20:13:19.876Z,6.74
2023-02-02T20:15:46.669Z,6.69
2023-02-02T20:18:21.837Z,6.72
2023-02-02T20:20:51.579Z,6.69
2023-02-02T20:23:43.623Z,6.76
2023-02-02T20:26:29.482Z,6.72
2023-02-02T20:28:58.059Z,6.67
2023-02-02T20:31:29.292Z,6.64
2023-02-02T20:33:57.599Z,6.67
2023-02-02T20:36:27.008Z,6.69
2023-02-02T20:38:53.501Z,6.71
2023-02-02T20:41:20.067Z,6.65
2023-02-02T20:43:46.690Z,6.63
2023-02-02T20:46:13.564Z,6.71
2023-02-02T20:48:40.096Z,6.68
2023-02-02T20:51:06.895Z,6.68
2023-02-02T20:53:33.376Z,6.63
2023-02-02T20:56:02.054Z,6.65
2023-02-02T20:58:28.536Z,6.64
2023-02-02T21:00:56.124Z,6.67
2023-02-02T21:03:22.660Z,6.66
2023-02-02T21:05:49.134Z,6.65
2023-02-02T21:08:15.701Z,6.63
2023-02-02T21:10:42.209Z,6.62
2023-02-02T21:13:08.729Z,6.62
2023-02-02T21:15:35.162Z,6.60
2023-02-02T21:18:01.637Z,6.62
2023-02-02T21:20:28.472Z,6.63
2023-02-02T21:22:56.626Z,6.63
2023-02-02T21:25:23.062Z,6.64
2023-02-02T21:27:55.609Z,6.63
2023-02-02T21:30:22.419Z,6.61
2023-02-02T21:32:48.917Z,6.61
2023-02-02T21:35:15.666Z,6.58
2023-02-02T21:37:44.065Z,6.61
2023-02-02T21:40:13.805Z,6.65
2023-02-02T21:42:44.453Z,6.62
2023-02-02T21:45:20.184Z,6.62
2023-02-02T21:47:58.102Z,6.59
2023-02-02T21:50:40.308Z,6.56
2023-02-02T21:53:19.121Z,6.59
2023-02-02T21:55:50.165Z,6.57
2023-02-02T21:58:27.671Z,6.62
2023-02-02T22:00:58.206Z,6.58
2023-02-02T22:03:34.707Z,6.61
2023-02-02T22:06:25.016Z,6.65
2023-02-02T22:08:52.322Z,6.59
2023-02-02T22:11:31.150Z,6.59
2023-02-02T22:14:01.932Z,6.65
2023-02-02T22:16:28.621Z,6.59
2023-02-02T22:18:55.393Z,6.60
2023-02-02T22:21:22.370Z,6.56
2023-02-02T22:23:48.917Z,6.53
2023-02-02T22:26:31.920Z,6.55
2023-02-02T22:28:58.361Z,6.52
2023-02-02T22:31:25.397Z,6.61
2023-02-02T22:33:51.929Z,6.55
2023-02-02T22:36:18.455Z,6.55
2023-02-02T22:38:44.945Z,6.56
2023-02-02T22:41:11.507Z,6.57
2023-02-02T22:43:37.969Z,6.58
2023-02-02T22:46:04.711Z,6.62
2023-02-02T22:48:31.233Z,6.64
2023-02-02T22:50:57.661Z,6.65
2023-02-02T22:53:24.131Z,6.63
2023-02-02T22:55:56.295Z,6.67
2023-02-02T22:58:24.422Z,6.69
2023-02-02T23:00:51.051Z,6.69
2023-02-02T23:03:17.635Z,6.67
2023-02-02T23:05:44.125Z,6.68
2023-02-02T23:08:10.627Z,6.68
2023-02-02T23:10:37.293Z,6.67
2023-02-02T23:13:04.743Z,6.69
2023-02-02T23:15:31.263Z,6.71
2023-02-02T23:17:57.808Z,6.69
2023-02-02T23:20:24.875Z,6.75
2023-02-02T23:22:51.518Z,6.75
2023-02-02T23:25:21.877Z,6.72
2023-02-02T23:27:48.563Z,6.73
2023-02-02T23:30:15.790Z,6.83
2023-02-02T23:32:42.516Z,6.79
2023-02-02T23:35:10.785Z,6.74
2023-02-02T23:37:37.865Z,6.78
2023-02-02T23:40:04.652Z,6.71
2023-02-02T23:42:31.140Z,6.69
2023-02-02T23:44:57.581Z,6.68
2023-02-02T23:47:24.071Z,6.62
2023-02-02T23:49:50.565Z,6.64
2023-02-02T23:52:17.093Z,6.62
2023-02-02T23:54:43.627Z,6.60
2023-02-02T23:57:10.352Z,6.60
2023-02-02T23:59:36.879Z,6.59
